sensor_id;sensor_type;location;lat;lon;timestamp;pressure;altitude;pressure_sealevel;temperature;humidity
69318;BME280;56457;52.190;4.440;2023-04-05T00:00:47;102655.28;;;4.22;100.00
69318;BME280;56457;52.190;4.440;2023-04-05T00:01:48;102662.09;;;4.20;100.00
69318;BME280;56457;52.190;4.440;2023-04-05T00:02:49;102657.72;;;4.19;100.00
69318;BME280;56457;52.190;4.440;2023-04-05T00:03:52;102657.66;;;4.18;100.00
69318;BME280;56457;52.190;4.440;2023-04-05T00:04:53;102652.41;;;4.16;100.00
69318;BME280;56457;52.190;4.440;2023-04-05T00:05:56;102648.16;;;4.18;100.00
69318;BME280;56457;52.190;4.440;2023-04-05T00:06:57;102651.84;;;4.23;100.00
69318;BME280;56457;52.190;4.440;2023-04-05T00:07:58;102653.63;;;4.24;100.00
69318;BME280;56457;52.190;4.440;2023-04-05T00:09:01;102640.56;;;4.23;100.00
69318;BME280;56457;52.190;4.440;2023-04-05T00:10:03;102642.94;;;4.18;100.00
69318;BME280;56457;52.190;4.440;2023-04-05T00:11:03;102649.63;;;4.13;100.00
69318;BME280;56457;52.190;4.440;2023-04-05T00:12:03;102653.94;;;4.13;100.00
69318;BME280;56457;52.190;4.440;2023-04-05T00:13:04;102644.38;;;4.12;100.00
69318;BME280;56457;52.190;4.440;2023-04-05T00:14:04;102647.03;;;4.13;100.00
69318;BME280;56457;52.190;4.440;2023-04-05T00:15:05;102649.69;;;4.15;100.00
69318;BME280;56457;52.190;4.440;2023-04-05T00:16:06;102644.44;;;4.13;100.00
69318;BME280;56457;52.190;4.440;2023-04-05T00:17:06;102653.19;;;4.15;100.00
69318;BME280;56457;52.190;4.440;2023-04-05T00:18:07;102650.59;;;4.15;100.00
69318;BME280;56457;52.190;4.440;2023-04-05T00:19:07;102647.09;;;4.15;100.00
69318;BME280;56457;52.190;4.440;2023-04-05T00:20:08;102645.38;;;4.15;100.00
69318;BME280;56457;52.190;4.440;2023-04-05T00:21:11;102650.47;;;4.12;100.00
69318;BME280;56457;52.190;4.440;2023-04-05T00:22:15;102640.06;;;4.12;100.00
69318;BME280;56457;52.190;4.440;2023-04-05T00:23:19;102638.41;;;4.14;100.00
69318;BME280;56457;52.190;4.440;2023-04-05T00:24:24;102645.25;;;4.12;100.00
69318;BME280;56457;52.190;4.440;2023-04-05T00:25:25;102639.19;;;4.12;100.00
69318;BME280;56457;52.190;4.440;2023-04-05T00:26:25;102642.59;;;4.11;100.00
69318;BME280;56457;52.190;4.440;2023-04-05T00:27:26;102644.09;;;4.05;100.00
69318;BME280;56457;52.190;4.440;2023-04-05T00:28:26;102639.84;;;4.08;100.00
69318;BME280;56457;52.190;4.440;2023-04-05T00:29:27;102645.19;;;4.11;100.00
69318;BME280;56457;52.190;4.440;2023-04-05T00:30:27;102642.66;;;4.12;100.00
69318;BME280;56457;52.190;4.440;2023-04-05T00:31:28;102638.34;;;4.13;100.00
69318;BME280;56457;52.190;4.440;2023-04-05T00:32:28;102646.00;;;4.10;100.00
69318;BME280;56457;52.190;4.440;2023-04-05T00:33:29;102641.47;;;4.05;100.00
69318;BME280;56457;52.190;4.440;2023-04-05T00:34:29;102644.03;;;4.04;100.00
69318;BME280;56457;52.190;4.440;2023-04-05T00:35:31;102644.03;;;4.04;100.00
69318;BME280;56457;52.190;4.440;2023-04-05T00:36:32;102640.44;;;4.02;100.00
69318;BME280;56457;52.190;4.440;2023-04-05T00:37:32;102642.81;;;3.97;100.00
69318;BME280;56457;52.190;4.440;2023-04-05T00:38:32;102638.53;;;3.98;100.00
69318;BME280;56457;52.190;4.440;2023-04-05T00:39:33;102641.31;;;4.02;100.00
69318;BME280;56457;52.190;4.440;2023-04-05T00:40:33;102646.50;;;4.02;100.00
69318;BME280;56457;52.190;4.440;2023-04-05T00:41:35;102636.94;;;4.01;100.00
69318;BME280;56457;52.190;4.440;2023-04-05T00:42:35;102632.59;;;4.00;100.00
69318;BME280;56457;52.190;4.440;2023-04-05T00:43:36;102636.88;;;4.00;100.00
69318;BME280;56457;52.190;4.440;2023-04-05T00:44:36;102638.66;;;4.01;100.00
69318;BME280;56457;52.190;4.440;2023-04-05T00:45:37;102625.69;;;4.01;100.00
69318;BME280;56457;52.190;4.440;2023-04-05T00:46:37;102637.00;;;4.03;100.00
69318;BME280;56457;52.190;4.440;2023-04-05T00:47:39;102629.75;;;3.96;100.00
69318;BME280;56457;52.190;4.440;2023-04-05T00:48:40;102634.81;;;3.93;100.00
69318;BME280;56457;52.190;4.440;2023-04-05T00:49:40;102626.81;;;3.88;100.00
69318;BME280;56457;52.190;4.440;2023-04-05T00:50:41;102629.41;;;3.88;100.00
69318;BME280;56457;52.190;4.440;2023-04-05T00:51:42;102632.00;;;3.88;100.00
69318;BME280;56457;52.190;4.440;2023-04-05T00:52:43;102629.47;;;3.90;100.00
69318;BME280;56457;52.190;4.440;2023-04-05T00:53:45;102632.16;;;3.91;100.00
69318;BME280;56457;52.190;4.440;2023-04-05T00:54:46;102622.78;;;3.95;100.00
69318;BME280;56457;52.190;4.440;2023-04-05T00:55:47;102634.00;;;3.94;100.00
69318;BME280;56457;52.190;4.440;2023-04-05T00:56:48;102621.84;;;3.93;100.00
69318;BME280;56457;52.190;4.440;2023-04-05T00:57:52;102624.28;;;3.90;100.00
69318;BME280;56457;52.190;4.440;2023-04-05T00:58:54;102623.16;;;3.85;100.00
69318;BME280;56457;52.190;4.440;2023-04-05T00:59:57;102631.69;;;3.82;100.00
69318;BME280;56457;52.190;4.440;2023-04-05T01:02:11;102622.66;;;3.74;100.00
69318;BME280;56457;52.190;4.440;2023-04-05T01:03:12;102619.06;;;3.72;100.00
69318;BME280;56457;52.190;4.440;2023-04-05T01:04:13;102615.69;;;3.73;100.00
69318;BME280;56457;52.190;4.440;2023-04-05T01:05:24;102614.94;;;3.75;100.00
69318;BME280;56457;52.190;4.440;2023-04-05T01:06:49;102613.16;;;3.74;100.00
69318;BME280;56457;52.190;4.440;2023-04-05T01:07:55;102614.19;;;3.78;100.00
69318;BME280;56457;52.190;4.440;2023-04-05T01:09:59;102617.06;;;3.84;100.00
69318;BME280;56457;52.190;4.440;2023-04-05T01:11:02;102619.84;;;3.87;100.00
69318;BME280;56457;52.190;4.440;2023-04-05T01:12:05;102612.28;;;3.92;100.00
69318;BME280;56457;52.190;4.440;2023-04-05T01:13:08;102618.19;;;3.89;100.00
69318;BME280;56457;52.190;4.440;2023-04-05T01:14:09;102608.84;;;3.93;100.00
69318;BME280;56457;52.190;4.440;2023-04-05T01:15:10;102610.56;;;3.92;100.00
69318;BME280;56457;52.190;4.440;2023-04-05T01:16:10;102612.28;;;3.92;100.00
69318;BME280;56457;52.190;4.440;2023-04-05T01:17:11;102617.59;;;3.95;100.00
69318;BME280;56457;52.190;4.440;2023-04-05T01:18:14;102602.84;;;3.94;100.00
69318;BME280;56457;52.190;4.440;2023-04-05T01:19:15;102612.28;;;3.92;100.00
69318;BME280;56457;52.190;4.440;2023-04-05T01:20:15;102612.88;;;3.86;100.00
69318;BME280;56457;52.190;4.440;2023-04-05T01:21:28;102612.69;;;3.83;100.00
69318;BME280;56457;52.190;4.440;2023-04-05T01:23:56;102605.66;;;3.81;100.00
69318;BME280;56457;52.190;4.440;2023-04-05T01:30:17;102603.97;;;3.63;100.00
69318;BME280;56457;52.190;4.440;2023-04-05T01:32:45;102602.25;;;3.64;100.00
69318;BME280;56457;52.190;4.440;2023-04-05T01:33:46;102604.03;;;3.65;100.00
69318;BME280;56457;52.190;4.440;2023-04-05T01:35:04;102596.31;;;3.66;100.00
69318;BME280;56457;52.190;4.440;2023-04-05T01:36:13;102599.94;;;3.70;100.00
69318;BME280;56457;52.190;4.440;2023-04-05T01:37:17;102596.47;;;3.69;100.00
69318;BME280;56457;52.190;4.440;2023-04-05T01:38:19;102603.22;;;3.66;100.00
69318;BME280;56457;52.190;4.440;2023-04-05T01:39:21;102592.75;;;3.64;100.00
69318;BME280;56457;52.190;4.440;2023-04-05T01:40:22;102599.88;;;3.68;100.00
69318;BME280;56457;52.190;4.440;2023-04-05T01:41:23;102600.78;;;3.69;100.00
69318;BME280;56457;52.190;4.440;2023-04-05T01:42:25;102600.25;;;3.76;100.00
69318;BME280;56457;52.190;4.440;2023-04-05T01:43:25;102598.53;;;3.76;100.00
69318;BME280;56457;52.190;4.440;2023-04-05T01:44:26;102593.88;;;3.69;100.00
69318;BME280;56457;52.190;4.440;2023-04-05T01:45:27;102598.25;;;3.70;100.00
69318;BME280;56457;52.190;4.440;2023-04-05T01:46:27;102589.50;;;3.68;100.00
69318;BME280;56457;52.190;4.440;2023-04-05T01:47:27;102585.94;;;3.66;100.00
69318;BME280;56457;52.190;4.440;2023-04-05T01:48:28;102592.81;;;3.66;100.00
69318;BME280;56457;52.190;4.440;2023-04-05T01:49:28;102591.06;;;3.65;100.00
69318;BME280;56457;52.190;4.440;2023-04-05T01:50:29;102590.03;;;3.61;100.00
69318;BME280;56457;52.190;4.440;2023-04-05T01:51:29;102589.03;;;3.59;100.00
69318;BME280;56457;52.190;4.440;2023-04-05T01:52:30;102583.94;;;3.61;100.00
69318;BME280;56457;52.190;4.440;2023-04-05T01:53:31;102587.44;;;3.61;100.00
69318;BME280;56457;52.190;4.440;2023-04-05T01:54:31;102582.97;;;3.59;100.00
69318;BME280;56457;52.190;4.440;2023-04-05T01:55:32;102579.41;;;3.57;100.00
69318;BME280;56457;52.190;4.440;2023-04-05T01:56:32;102578.59;;;3.58;100.00
69318;BME280;56457;52.190;4.440;2023-04-05T01:57:32;102577.66;;;3.56;100.00
69318;BME280;56457;52.190;4.440;2023-04-05T01:58:33;102581.78;;;3.52;100.00
69318;BME280;56457;52.190;4.440;2023-04-05T01:59:33;102570.50;;;3.51;100.00
69318;BME280;56457;52.190;4.440;2023-04-05T02:00:34;102576.59;;;3.52;100.00
69318;BME280;56457;52.190;4.440;2023-04-05T02:01:34;102580.25;;;3.56;100.00
69318;BME280;56457;52.190;4.440;2023-04-05T02:02:34;102570.59;;;3.53;100.00
69318;BME280;56457;52.190;4.440;2023-04-05T02:03:35;102574.28;;;3.58;100.00
69318;BME280;56457;52.190;4.440;2023-04-05T02:04:35;102572.75;;;3.62;100.00
69318;BME280;56457;52.190;4.440;2023-04-05T02:05:36;102568.44;;;3.62;100.00
69318;BME280;56457;52.190;4.440;2023-04-05T02:06:36;102564.38;;;3.67;100.00
69318;BME280;56457;52.190;4.440;2023-04-05T02:07:36;102566.09;;;3.67;100.00
69318;BME280;56457;52.190;4.440;2023-04-05T02:08:37;102560.78;;;3.65;100.00
69318;BME280;56457;52.190;4.440;2023-04-05T02:09:37;102558.00;;;3.61;100.00
69318;BME280;56457;52.190;4.440;2023-04-05T02:10:38;102557.91;;;3.59;100.00
69318;BME280;56457;52.190;4.440;2023-04-05T02:11:38;102551.75;;;3.57;100.00
69318;BME280;56457;52.190;4.440;2023-04-05T02:12:39;102556.88;;;3.56;100.00
69318;BME280;56457;52.190;4.440;2023-04-05T02:13:39;102552.66;;;3.58;100.00
69318;BME280;56457;52.190;4.440;2023-04-05T02:14:40;102549.97;;;3.56;100.00
69318;BME280;56457;52.190;4.440;2023-04-05T02:15:40;102555.19;;;3.56;100.00
69318;BME280;56457;52.190;4.440;2023-04-05T02:16:46;102548.28;;;3.57;100.00
69318;BME280;56457;52.190;4.440;2023-04-05T02:17:46;102544.63;;;3.53;100.00
69318;BME280;56457;52.190;4.440;2023-04-05T02:18:47;102549.03;;;3.54;100.00
69318;BME280;56457;52.190;4.440;2023-04-05T02:19:50;102547.31;;;3.55;100.00
69318;BME280;56457;52.190;4.440;2023-04-05T02:20:52;102544.72;;;3.55;100.00
69318;BME280;56457;52.190;4.440;2023-04-05T02:21:52;102543.97;;;3.57;100.00
69318;BME280;56457;52.190;4.440;2023-04-05T02:22:55;102542.31;;;3.59;100.00
69318;BME280;56457;52.190;4.440;2023-04-05T02:23:57;102551.88;;;3.60;100.00
69318;BME280;56457;52.190;4.440;2023-04-05T02:24:57;102543.44;;;3.64;100.00
69318;BME280;56457;52.190;4.440;2023-04-05T02:25:58;102548.63;;;3.64;100.00
69318;BME280;56457;52.190;4.440;2023-04-05T02:26:59;102547.69;;;3.62;100.00
69318;BME280;56457;52.190;4.440;2023-04-05T02:28:00;102552.13;;;3.65;100.00
69318;BME280;56457;52.190;4.440;2023-04-05T02:29:00;102550.28;;;3.62;100.00
69318;BME280;56457;52.190;4.440;2023-04-05T02:30:00;102549.22;;;3.59;100.00
69318;BME280;56457;52.190;4.440;2023-04-05T02:31:01;102548.22;;;3.55;100.00
69318;BME280;56457;52.190;4.440;2023-04-05T02:32:07;102548.94;;;3.53;100.00
69318;BME280;56457;52.190;4.440;2023-04-05T02:33:07;102553.25;;;3.52;100.00
69318;BME280;56457;52.190;4.440;2023-04-05T02:34:09;102551.63;;;3.54;100.00
69318;BME280;56457;52.190;4.440;2023-04-05T02:35:10;102554.13;;;3.53;100.00
69318;BME280;56457;52.190;4.440;2023-04-05T02:36:11;102556.66;;;3.51;100.00
69318;BME280;56457;52.190;4.440;2023-04-05T02:37:15;102549.81;;;3.53;100.00
69318;BME280;56457;52.190;4.440;2023-04-05T02:38:15;102548.22;;;3.55;100.00
69318;BME280;56457;52.190;4.440;2023-04-05T02:39:16;102547.31;;;3.55;100.00
69318;BME280;56457;52.190;4.440;2023-04-05T02:40:16;102547.38;;;3.56;100.00
69318;BME280;56457;52.190;4.440;2023-04-05T02:41:16;102544.84;;;3.58;100.00
69318;BME280;56457;52.190;4.440;2023-04-05T02:42:17;102549.81;;;3.53;100.00
69318;BME280;56457;52.190;4.440;2023-04-05T02:43:17;102545.22;;;3.47;100.00
69318;BME280;56457;52.190;4.440;2023-04-05T02:44:17;102546.88;;;3.45;100.00
69318;BME280;56457;52.190;4.440;2023-04-05T02:45:18;102548.34;;;3.40;100.00
69318;BME280;56457;52.190;4.440;2023-04-05T02:46:18;102546.88;;;3.45;100.00
69318;BME280;56457;52.190;4.440;2023-04-05T02:47:19;102539.16;;;3.47;100.00
69318;BME280;56457;52.190;4.440;2023-04-05T02:48:22;102546.88;;;3.45;100.00
69318;BME280;56457;52.190;4.440;2023-04-05T02:49:22;102547.63;;;3.43;100.00
69318;BME280;56457;52.190;4.440;2023-04-05T02:50:23;102536.41;;;3.44;100.00
69318;BME280;56457;52.190;4.440;2023-04-05T02:51:23;102545.03;;;3.43;100.00
69318;BME280;56457;52.190;4.440;2023-04-05T02:52:23;102539.59;;;3.38;100.00
69318;BME280;56457;52.190;4.440;2023-04-05T02:53:24;102543.03;;;3.37;100.00
69318;BME280;56457;52.190;4.440;2023-04-05T02:54:24;102539.38;;;3.34;100.00
69318;BME280;56457;52.190;4.440;2023-04-05T02:55:25;102543.75;;;3.35;100.00
69318;BME280;56457;52.190;4.440;2023-04-05T02:56:25;102535.88;;;3.33;100.00
69318;BME280;56457;52.190;4.440;2023-04-05T02:57:26;102538.34;;;3.30;100.00
69318;BME280;56457;52.190;4.440;2023-04-05T02:58:26;102534.69;;;3.27;100.00
69318;BME280;56457;52.190;4.440;2023-04-05T02:59:27;102525.97;;;3.24;100.00
69318;BME280;56457;52.190;4.440;2023-04-05T03:00:28;102539.75;;;3.23;100.00
69318;BME280;56457;52.190;4.440;2023-04-05T03:01:28;102529.38;;;3.23;100.00
69318;BME280;56457;52.190;4.440;2023-04-05T03:02:29;102531.16;;;3.24;100.00
69318;BME280;56457;52.190;4.440;2023-04-05T03:03:30;102527.69;;;3.24;100.00
69318;BME280;56457;52.190;4.440;2023-04-05T03:04:30;102532.94;;;3.26;100.00
69318;BME280;56457;52.190;4.440;2023-04-05T03:05:33;102522.31;;;3.21;100.00
69318;BME280;56457;52.190;4.440;2023-04-05T03:06:33;102528.97;;;3.16;100.00
69318;BME280;56457;52.190;4.440;2023-04-05T03:07:34;102527.06;;;3.12;100.00
69318;BME280;56457;52.190;4.440;2023-04-05T03:08:37;102525.28;;;3.11;100.00
69318;BME280;56457;52.190;4.440;2023-04-05T03:09:38;102526.97;;;3.10;100.00
69318;BME280;56457;52.190;4.440;2023-04-05T03:10:38;102524.19;;;3.06;100.00
69318;BME280;56457;52.190;4.440;2023-04-05T03:11:44;102528.53;;;3.07;100.00
69318;BME280;56457;52.190;4.440;2023-04-05T03:12:44;102531.13;;;3.07;100.00
69318;BME280;56457;52.190;4.440;2023-04-05T03:13:45;102528.53;;;3.07;100.00
69318;BME280;56457;52.190;4.440;2023-04-05T03:14:45;102527.72;;;3.08;100.00
69318;BME280;56457;52.190;4.440;2023-04-05T03:15:46;102535.56;;;3.09;100.00
69318;BME280;56457;52.190;4.440;2023-04-05T03:16:46;102527.72;;;3.08;100.00
69318;BME280;56457;52.190;4.440;2023-04-05T03:17:49;102536.25;;;3.05;100.00
69318;BME280;56457;52.190;4.440;2023-04-05T03:18:49;102534.75;;;3.10;100.00
69318;BME280;56457;52.190;4.440;2023-04-05T03:19:50;102535.56;;;3.09;100.00
69318;BME280;56457;52.190;4.440;2023-04-05T03:20:50;102527.88;;;3.11;100.00
69318;BME280;56457;52.190;4.440;2023-04-05T03:21:57;102536.56;;;3.11;100.00
69318;BME280;56457;52.190;4.440;2023-04-05T03:22:57;102539.94;;;3.10;100.00
69318;BME280;56457;52.190;4.440;2023-04-05T03:23:57;102534.63;;;3.07;100.00
69318;BME280;56457;52.190;4.440;2023-04-05T03:24:58;102531.84;;;3.04;100.00
69318;BME280;56457;52.190;4.440;2023-04-05T03:25:59;102535.25;;;3.03;100.00
69318;BME280;56457;52.190;4.440;2023-04-05T03:27:00;102526.66;;;3.04;100.00
69318;BME280;56457;52.190;4.440;2023-04-05T03:28:02;102525.88;;;3.05;100.00
69318;BME280;56457;52.190;4.440;2023-04-05T03:29:04;102527.88;;;3.11;100.00
69318;BME280;56457;52.190;4.440;2023-04-05T03:30:05;102523.44;;;3.08;100.00
69318;BME280;56457;52.190;4.440;2023-04-05T03:31:06;102527.78;;;3.09;100.00
69318;BME280;56457;52.190;4.440;2023-04-05T03:32:06;102522.72;;;3.11;100.00
69318;BME280;56457;52.190;4.440;2023-04-05T03:33:10;102529.38;;;3.06;100.00
69318;BME280;56457;52.190;4.440;2023-04-05T03:34:11;102534.31;;;3.01;100.00
69318;BME280;56457;52.190;4.440;2023-04-05T03:35:11;102523.88;;;3.00;100.00
69318;BME280;56457;52.190;4.440;2023-04-05T03:36:12;102528.31;;;3.02;100.00
69318;BME280;56457;52.190;4.440;2023-04-05T03:37:15;102517.94;;;3.02;100.00
69318;BME280;56457;52.190;4.440;2023-04-05T03:38:16;102520.47;;;3.01;100.00
69318;BME280;56457;52.190;4.440;2023-04-05T03:39:16;102508.97;;;2.95;100.00
69318;BME280;56457;52.190;4.440;2023-04-05T03:40:17;102514.09;;;2.94;100.00
69318;BME280;56457;52.190;4.440;2023-04-05T03:41:17;102506.94;;;2.90;100.00
69318;BME280;56457;52.190;4.440;2023-04-05T03:42:19;102514.72;;;2.90;100.00
69318;BME280;56457;52.190;4.440;2023-04-05T03:43:19;102507.03;;;2.91;100.00
69318;BME280;56457;52.190;4.440;2023-04-05T03:44:20;102506.06;;;2.89;100.00
69318;BME280;56457;52.190;4.440;2023-04-05T03:45:20;102502.44;;;2.86;100.00
69318;BME280;56457;52.190;4.440;2023-04-05T03:46:21;102503.97;;;2.82;100.00
69318;BME280;56457;52.190;4.440;2023-04-05T03:47:21;102501.09;;;2.76;100.00
69318;BME280;56457;52.190;4.440;2023-04-05T03:48:22;102497.38;;;2.71;100.00
69318;BME280;56457;52.190;4.440;2023-04-05T03:49:22;102497.13;;;2.66;100.00
69318;BME280;56457;52.190;4.440;2023-04-05T03:50:22;102503.81;;;2.61;100.00
69318;BME280;56457;52.190;4.440;2023-04-05T03:51:23;102507.19;;;2.60;100.00
69318;BME280;56457;52.190;4.440;2023-04-05T03:52:24;102504.38;;;2.56;100.00
69318;BME280;56457;52.190;4.440;2023-04-05T03:53:24;102504.38;;;2.56;100.00
69318;BME280;56457;52.190;4.440;2023-04-05T03:54:25;102502.16;;;2.63;100.00
69318;BME280;56457;52.190;4.440;2023-04-05T03:55:25;102508.47;;;2.68;100.00
69318;BME280;56457;52.190;4.440;2023-04-05T03:56:26;102499.88;;;2.69;100.00
69318;BME280;56457;52.190;4.440;2023-04-05T03:57:26;102502.63;;;2.73;100.00
69318;BME280;56457;52.190;4.440;2023-04-05T03:58:30;102498.13;;;2.68;100.00
69318;BME280;56457;52.190;4.440;2023-04-05T03:59:30;102505.06;;;2.69;100.00
69318;BME280;56457;52.190;4.440;2023-04-05T04:00:31;102498.50;;;2.76;100.00
69318;BME280;56457;52.190;4.440;2023-04-05T04:01:32;102493.38;;;2.78;100.00
69318;BME280;56457;52.190;4.440;2023-04-05T04:02:32;102502.03;;;2.78;100.00
69318;BME280;56457;52.190;4.440;2023-04-05T04:03:32;102501.72;;;2.72;100.00
69318;BME280;56457;52.190;4.440;2023-04-05T04:04:33;102499.13;;;2.72;100.00
69318;BME280;56457;52.190;4.440;2023-04-05T04:05:33;102501.91;;;2.75;100.00
69318;BME280;56457;52.190;4.440;2023-04-05T04:06:37;102497.84;;;2.80;100.00
69318;BME280;56457;52.190;4.440;2023-04-05T04:07:39;102503.03;;;2.80;100.00
69318;BME280;56457;52.190;4.440;2023-04-05T04:08:40;102501.22;;;2.79;100.00
69318;BME280;56457;52.190;4.440;2023-04-05T04:09:41;102494.06;;;2.74;100.00
69318;BME280;56457;52.190;4.440;2023-04-05T04:10:41;102501.16;;;2.78;100.00
69318;BME280;56457;52.190;4.440;2023-04-05T04:11:41;102499.38;;;2.77;100.00
69318;BME280;56457;52.190;4.440;2023-04-05T04:12:42;102502.13;;;2.80;100.00
69318;BME280;56457;52.190;4.440;2023-04-05T04:13:43;102503.97;;;2.82;100.00
69318;BME280;56457;52.190;4.440;2023-04-05T04:14:43;102496.97;;;2.80;100.00
69318;BME280;56457;52.190;4.440;2023-04-05T04:15:44;102496.78;;;2.77;100.00
69318;BME280;56457;52.190;4.440;2023-04-05T04:16:44;102497.75;;;2.79;100.00
69318;BME280;56457;52.190;4.440;2023-04-05T04:17:45;102503.97;;;2.82;100.00
69318;BME280;56457;52.190;4.440;2023-04-05T04:18:45;102494.66;;;2.86;100.00
69318;BME280;56457;52.190;4.440;2023-04-05T04:19:46;102500.06;;;2.90;100.00
69318;BME280;56457;52.190;4.440;2023-04-05T04:20:46;102500.16;;;2.92;100.00
69318;BME280;56457;52.190;4.440;2023-04-05T04:21:47;102498.34;;;2.91;100.00
69318;BME280;56457;52.190;4.440;2023-04-05T04:22:50;102507.19;;;2.94;100.00
69318;BME280;56457;52.190;4.440;2023-04-05T04:23:52;102505.34;;;2.92;100.00
69318;BME280;56457;52.190;4.440;2023-04-05T04:24:54;102503.53;;;2.91;100.00
69318;BME280;56457;52.190;4.440;2023-04-05T04:25:55;102496.44;;;2.87;100.00
69318;BME280;56457;52.190;4.440;2023-04-05T04:26:55;102498.94;;;2.85;100.00
69318;BME280;56457;52.190;4.440;2023-04-05T04:27:55;102503.81;;;2.79;100.00
69318;BME280;56457;52.190;4.440;2023-04-05T04:28:56;102492.66;;;2.80;100.00
69318;BME280;56457;52.190;4.440;2023-04-05T04:29:56;102496.97;;;2.80;100.00
69318;BME280;56457;52.190;4.440;2023-04-05T04:31:03;102494.25;;;2.78;100.00
69318;BME280;56457;52.190;4.440;2023-04-05T04:32:08;102500.34;;;2.79;100.00
69318;BME280;56457;52.190;4.440;2023-04-05T04:33:08;102499.69;;;2.83;100.00
69318;BME280;56457;52.190;4.440;2023-04-05T04:34:09;102497.84;;;2.80;100.00
69318;BME280;56457;52.190;4.440;2023-04-05T04:35:09;102497.84;;;2.80;100.00
69318;BME280;56457;52.190;4.440;2023-04-05T04:36:10;102492.41;;;2.76;100.00
69318;BME280;56457;52.190;4.440;2023-04-05T04:37:13;102492.25;;;2.73;100.00
69318;BME280;56457;52.190;4.440;2023-04-05T04:38:21;102496.47;;;2.70;100.00
69318;BME280;56457;52.190;4.440;2023-04-05T04:39:25;102498.81;;;2.66;100.00
69318;BME280;56457;52.190;4.440;2023-04-05T04:40:27;102495.41;;;2.67;100.00
69318;BME280;56457;52.190;4.440;2023-04-05T04:41:28;102492.03;;;2.68;100.00
69318;BME280;56457;52.190;4.440;2023-04-05T04:42:28;102490.09;;;2.64;100.00
69318;BME280;56457;52.190;4.440;2023-04-05T04:43:37;102492.38;;;2.58;100.00
69318;BME280;56457;52.190;4.440;2023-04-05T04:44:46;102493.84;;;2.53;100.00
69318;BME280;56457;52.190;4.440;2023-04-05T04:45:47;102492.00;;;2.50;100.00
69318;BME280;56457;52.190;4.440;2023-04-05T04:46:48;102494.59;;;2.50;100.00
69318;BME280;56457;52.190;4.440;2023-04-05T04:47:53;102492.94;;;2.52;100.00
69318;BME280;56457;52.190;4.440;2023-04-05T04:48:54;102486.06;;;2.53;100.00
69318;BME280;56457;52.190;4.440;2023-04-05T04:49:54;102486.75;;;2.49;100.00
69318;BME280;56457;52.190;4.440;2023-04-05T04:50:56;102496.34;;;2.51;100.00
69318;BME280;56457;52.190;4.440;2023-04-05T04:51:57;102490.94;;;2.47;100.00
69318;BME280;56457;52.190;4.440;2023-04-05T04:52:58;102495.16;;;2.45;100.00
69318;BME280;56457;52.190;4.440;2023-04-05T04:53:59;102485.50;;;2.42;100.00
69318;BME280;56457;52.190;4.440;2023-04-05T04:54:59;102489.72;;;2.40;100.00
69318;BME280;56457;52.190;4.440;2023-04-05T04:56:05;102494.84;;;2.38;100.00
69318;BME280;56457;52.190;4.440;2023-04-05T04:57:06;102490.63;;;2.40;100.00
69318;BME280;56457;52.190;4.440;2023-04-05T04:58:11;102493.19;;;2.40;100.00
69318;BME280;56457;52.190;4.440;2023-04-05T04:59:12;102486.31;;;2.41;100.00
69318;BME280;56457;52.190;4.440;2023-04-05T05:00:12;102496.03;;;2.45;100.00
69318;BME280;56457;52.190;4.440;2023-04-05T05:01:14;102491.00;;;2.48;100.00
69318;BME280;56457;52.190;4.440;2023-04-05T05:02:15;102491.00;;;2.48;100.00
69318;BME280;56457;52.190;4.440;2023-04-05T05:03:15;102491.19;;;2.51;100.00
69318;BME280;56457;52.190;4.440;2023-04-05T05:04:16;102501.38;;;2.48;100.00
69318;BME280;56457;52.190;4.440;2023-04-05T05:05:16;102500.72;;;2.52;100.00
69318;BME280;56457;52.190;4.440;2023-04-05T05:06:17;102490.53;;;2.55;100.00
69318;BME280;56457;52.190;4.440;2023-04-05T05:07:21;102500.78;;;2.54;100.00
69318;BME280;56457;52.190;4.440;2023-04-05T05:08:21;102496.66;;;2.57;100.00
69318;BME280;56457;52.190;4.440;2023-04-05T05:09:22;102494.16;;;2.59;100.00
69318;BME280;56457;52.190;4.440;2023-04-05T05:10:22;102490.03;;;2.62;100.00
69318;BME280;56457;52.190;4.440;2023-04-05T05:11:23;102490.16;;;2.65;100.00
69318;BME280;56457;52.190;4.440;2023-04-05T05:12:23;102492.94;;;2.68;100.00
69318;BME280;56457;52.190;4.440;2023-04-05T05:13:25;102501.41;;;2.66;100.00
69318;BME280;56457;52.190;4.440;2023-04-05T05:14:26;102496.41;;;2.69;100.00
69318;BME280;56457;52.190;4.440;2023-04-05T05:15:26;102499.06;;;2.70;100.00
69318;BME280;56457;52.190;4.440;2023-04-05T05:16:26;102496.66;;;2.74;100.00
69318;BME280;56457;52.190;4.440;2023-04-05T05:17:27;102491.53;;;2.75;100.00
69318;BME280;56457;52.190;4.440;2023-04-05T05:18:27;102496.72;;;2.75;100.00
69318;BME280;56457;52.190;4.440;2023-04-05T05:19:28;102500.25;;;2.77;100.00
69318;BME280;56457;52.190;4.440;2023-04-05T05:20:28;102497.03;;;2.81;100.00
69318;BME280;56457;52.190;4.440;2023-04-05T05:21:29;102503.22;;;2.85;100.00
69318;BME280;56457;52.190;4.440;2023-04-05T05:22:30;102505.19;;;2.89;100.00
69318;BME280;56457;52.190;4.440;2023-04-05T05:23:30;102503.41;;;2.88;100.00
69318;BME280;56457;52.190;4.440;2023-04-05T05:24:31;102500.75;;;2.86;100.00
69318;BME280;56457;52.190;4.440;2023-04-05T05:25:31;102500.63;;;2.85;100.00
69318;BME280;56457;52.190;4.440;2023-04-05T05:26:31;102503.34;;;2.86;100.00
69318;BME280;56457;52.190;4.440;2023-04-05T05:27:32;102510.28;;;2.87;100.00
69318;BME280;56457;52.190;4.440;2023-04-05T05:28:35;102511.00;;;2.85;100.00
69318;BME280;56457;52.190;4.440;2023-04-05T05:29:36;102505.09;;;2.87;100.00
69318;BME280;56457;52.190;4.440;2023-04-05T05:30:36;102504.34;;;2.90;100.00
69318;BME280;56457;52.190;4.440;2023-04-05T05:31:37;102504.44;;;2.91;100.00